Time;durP1;ratioP1;P1;durP2;ratioP2;P2;SDS_P1;SDS_P2;PMS_P1;PMS_P2;Temp;Humidity;BMP_temperature;BMP_pressure;BME280_temperature;BME280_humidity;BME280_pressure;Samples;Min_cycle;Max_cycle;Signal;HPM_P1;HPM_P2
2023/08/19 00:00:16;;;;;;;6.05;3.10;;;20.10;99.90;;;19.52;100.00;100727.97;4151131;28;20524;-72
2023/08/19 00:02:17;;;;;;;4.72;3.20;;;20.00;99.90;;;19.59;100.00;100747.47;4151040;28;20032;-72
2023/08/19 00:04:18;;;;;;;4.72;2.80;;;20.00;99.90;;;19.56;100.00;100747.88;4152126;28;20062;-72
2023/08/19 00:06:36;;;;;;;4.50;2.88;;;20.00;99.90;;;19.57;100.00;100752.22;4152201;28;20026;-72
2023/08/19 00:08:37;;;;;;;10.18;3.30;;;20.00;99.90;;;19.56;100.00;100747.09;4152391;28;20109;-72
2023/08/19 00:10:39;;;;;;;4.90;3.03;;;20.00;99.90;;;19.56;100.00;100749.78;4134870;28;20045;-72
2023/08/19 00:12:40;;;;;;;7.75;3.47;;;20.00;99.90;;;19.52;100.00;100736.00;4155204;28;20064;-72
2023/08/19 00:14:41;;;;;;;7.93;3.33;;;20.10;99.90;;;19.46;100.00;100731.50;4153990;28;20034;-72
2023/08/19 00:16:43;;;;;;;8.73;3.67;;;20.10;99.90;;;19.59;100.00;100749.34;4145113;28;20520;-72
2023/08/19 00:18:44;;;;;;;6.60;3.05;;;20.10;99.90;;;19.56;100.00;100755.91;4166240;28;20029;-72
2023/08/19 00:20:45;;;;;;;7.93;3.17;;;20.10;99.90;;;19.57;100.00;100756.75;4122278;28;20030;-72
2023/08/19 00:22:46;;;;;;;10.80;3.03;;;20.10;99.90;;;19.58;100.00;100756.53;4143470;28;20034;-72
2023/08/19 00:24:46;;;;;;;9.25;3.65;;;20.10;99.90;;;19.49;100.00;100741.78;4147553;28;20037;-72
2023/08/19 00:26:47;;;;;;;8.98;3.75;;;20.10;99.90;;;19.60;100.00;100754.47;4153786;28;20029;-72
2023/08/19 00:28:48;;;;;;;9.15;3.45;;;20.00;99.90;;;19.61;100.00;100753.44;4154904;28;20102;-72
2023/08/19 00:30:49;;;;;;;8.07;3.60;;;20.10;99.90;;;19.63;100.00;100755.88;4155060;28;20398;-72
2023/08/19 00:32:50;;;;;;;8.13;3.63;;;20.10;99.90;;;19.59;100.00;100752.00;4153659;28;20029;-72
2023/08/19 00:34:51;;;;;;;11.60;3.72;;;20.20;99.90;;;19.71;100.00;100774.38;4168396;28;20030;-72
2023/08/19 00:36:54;;;;;;;11.85;3.20;;;20.20;99.90;;;19.65;100.00;100772.56;4154619;28;20046;-72
2023/08/19 00:38:54;;;;;;;17.88;4.20;;;20.10;99.90;;;19.58;100.00;100779.81;4154975;28;20030;-72
2023/08/19 00:40:55;;;;;;;9.57;3.58;;;20.10;99.90;;;19.61;100.00;100784.72;4154913;28;20037;-72
2023/08/19 00:42:56;;;;;;;7.22;3.20;;;20.10;99.90;;;19.47;100.00;100759.91;4153654;28;20517;-72
2023/08/19 00:44:57;;;;;;;13.88;3.63;;;20.10;99.90;;;19.66;100.00;100788.41;4154620;28;20030;-72
2023/08/19 00:47:01;;;;;;;15.13;3.42;;;20.10;99.90;;;19.69;100.00;100789.81;4154812;28;20027;-72
2023/08/19 00:49:02;;;;;;;11.20;3.53;;;20.20;99.90;;;19.72;100.00;100800.09;4153455;28;20092;-72
2023/08/19 00:51:05;;;;;;;11.77;3.08;;;20.20;99.90;;;19.72;100.00;100798.25;4153375;28;20030;-72
2023/08/19 00:53:08;;;;;;;14.40;4.07;;;20.20;99.90;;;19.58;100.00;100777.94;4153466;28;20034;-72
2023/08/19 00:55:10;;;;;;;9.93;3.33;;;20.20;99.90;;;19.62;100.00;100789.84;4153520;28;20030;-72
2023/08/19 00:57:12;;;;;;;10.63;3.20;;;20.10;99.90;;;19.42;100.00;100773.06;4153357;28;20030;-72
2023/08/19 00:59:13;;;;;;;14.38;3.17;;;20.10;99.90;;;19.42;100.00;100782.94;4154753;28;20025;-72
2023/08/19 01:01:14;;;;;;;9.77;3.03;;;20.00;99.90;;;19.40;100.00;100793.88;4153615;28;20206;-72
2023/08/19 01:03:15;;;;;;;14.25;2.83;;;19.90;99.90;;;19.40;100.00;100799.22;4153141;28;20037;-72
2023/08/19 01:05:16;;;;;;;11.68;3.65;;;19.90;99.90;;;19.38;100.00;100797.78;4154673;28;20029;-72
2023/08/19 01:07:48;;;;;;;11.43;3.85;;;19.90;99.90;;;19.46;100.00;100816.28;4153279;28;20024;-72
2023/08/19 01:10:07;;;;;;;10.63;3.13;;;19.90;99.90;;;19.46;100.00;100817.13;4153377;28;20054;-72
2023/08/19 01:12:17;;;;;;;17.25;4.28;;;19.90;99.90;;;19.48;100.00;100823.06;4153436;28;20033;-73
2023/08/19 01:14:32;;;;;;;14.30;4.10;;;19.90;99.90;;;19.52;100.00;100818.94;4153043;28;20042;-72
2023/08/19 01:16:33;;;;;;;11.80;4.05;;;20.00;99.90;;;19.47;100.00;100810.75;4153372;28;20105;-72
2023/08/19 01:18:38;;;;;;;11.75;3.78;;;20.00;99.90;;;19.46;100.00;100819.78;4152986;28;20520;-72
2023/08/19 01:20:40;;;;;;;14.48;4.22;;;19.90;99.90;;;19.40;100.00;100823.31;4153019;28;20048;-73
2023/08/19 01:22:55;;;;;;;19.33;4.35;;;19.90;99.90;;;19.36;100.00;100814.03;4148558;28;20026;-73
2023/08/19 01:24:56;;;;;;;11.80;3.08;;;19.90;99.90;;;19.33;100.00;100819.78;4149058;28;20030;-73
2023/08/19 01:26:57;;;;;;;18.70;4.38;;;19.80;99.90;;;19.25;100.00;100817.34;4152980;28;20080;-72
2023/08/19 01:28:58;;;;;;;17.45;3.90;;;19.80;99.90;;;19.21;100.00;100819.63;4154183;28;20018;-72
2023/08/19 01:30:59;;;;;;;16.35;4.25;;;19.70;99.90;;;19.01;100.00;100802.00;4129765;28;20090;-72
2023/08/19 01:33:02;;;;;;;24.80;5.22;;;19.70;99.90;;;19.06;100.00;100827.06;4147033;28;20022;-72
2023/08/19 01:35:05;;;;;;;18.58;5.70;;;19.60;99.90;;;19.02;100.00;100841.91;4151026;28;20037;-72
2023/08/19 01:37:13;;;;;;;25.52;6.50;;;19.60;99.90;;;18.94;100.00;100839.44;4154227;28;20081;-72
2023/08/19 01:39:14;;;;;;;20.13;5.28;;;19.50;99.90;;;18.84;100.00;100827.53;4154047;28;20067;-73
2023/08/19 01:41:16;;;;;;;23.90;5.47;;;19.40;99.90;;;18.83;100.00;100847.25;4152928;28;20405;-73
2023/08/19 01:43:18;;;;;;;18.63;4.22;;;19.40;99.90;;;18.79;100.00;100845.00;4153772;28;20038;-73
2023/08/19 01:45:19;;;;;;;21.25;4.18;;;19.40;99.90;;;18.79;100.00;100839.66;4153953;28;20045;-73
2023/08/19 01:47:20;;;;;;;16.55;3.65;;;19.40;99.90;;;18.81;100.00;100836.78;4152359;28;20045;-73
2023/08/19 01:49:21;;;;;;;17.40;5.15;;;19.40;99.90;;;18.84;100.00;100840.91;4141486;28;20101;-73
2023/08/19 01:51:22;;;;;;;18.90;4.68;;;19.30;99.90;;;18.78;100.00;100832.69;4151827;28;20037;-72
2023/08/19 01:53:23;;;;;;;19.02;4.40;;;19.30;99.90;;;18.79;100.00;100844.16;4152662;28;20025;-73
2023/08/19 01:55:24;;;;;;;19.08;3.45;;;19.30;99.90;;;18.76;100.00;100848.09;4153878;28;20030;-73
2023/08/19 01:57:28;;;;;;;18.95;4.13;;;19.30;99.90;;;18.71;100.00;100839.03;4153837;28;20036;-73
2023/08/19 01:59:29;;;;;;;22.67;4.50;;;19.30;99.90;;;18.68;100.00;100844.81;4153642;28;20038;-72
2023/08/19 02:01:30;;;;;;;18.90;5.05;;;19.30;99.90;;;18.61;100.00;100828.75;4136125;28;20469;-72
2023/08/19 02:03:30;;;;;;;22.98;3.83;;;19.30;99.90;;;18.63;100.00;100831.25;4152553;28;20038;-72
2023/08/19 02:05:31;;;;;;;18.63;3.80;;;19.30;99.90;;;18.79;100.00;100855.69;4152334;28;20512;-72
2023/08/19 02:07:32;;;;;;;19.80;4.13;;;19.30;99.90;;;18.82;100.00;100851.78;4152320;28;20512;-72
2023/08/19 02:09:33;;;;;;;11.52;3.67;;;19.30;99.90;;;18.82;100.00;100851.78;4140151;28;20026;-72
2023/08/19 02:11:34;;;;;;;17.80;3.50;;;19.30;99.90;;;18.71;100.00;100844.38;4153549;28;20030;-72
2023/08/19 02:13:35;;;;;;;20.92;3.75;;;19.20;99.90;;;18.68;100.00;100861.66;4136335;28;20057;-72
2023/08/19 02:15:36;;;;;;;13.73;2.95;;;19.20;99.90;;;18.59;100.00;100862.91;4153374;28;20033;-72
2023/08/19 02:17:37;;;;;;;19.00;3.42;;;19.10;99.90;;;18.48;100.00;100852.78;4153274;28;20056;-72
2023/08/19 02:19:38;;;;;;;16.55;3.35;;;19.00;99.90;;;18.33;100.00;100862.84;4153394;28;20026;-72
2023/08/19 02:21:38;;;;;;;20.83;4.03;;;18.90;99.90;;;18.14;100.00;100867.13;4152137;28;20437;-72
2023/08/19 02:23:39;;;;;;;17.38;4.05;;;18.80;99.90;;;18.11;100.00;100886.22;4152907;28;20034;-72
2023/08/19 02:25:40;;;;;;;21.73;4.68;;;18.70;99.90;;;17.99;100.00;100884.31;4153417;28;20026;-72
2023/08/19 02:27:43;;;;;;;17.50;5.10;;;18.60;99.90;;;17.91;100.00;100879.16;4152171;28;20508;-72
2023/08/19 02:29:44;;;;;;;19.25;3.30;;;18.50;99.90;;;17.85;100.00;100885.31;4158188;28;20033;-72
2023/08/19 02:31:47;;;;;;;15.23;3.28;;;18.40;99.90;;;17.76;100.00;100883.81;4150488;28;20485;-72
2023/08/19 02:33:47;;;;;;;13.00;3.00;;;18.40;99.90;;;17.73;100.00;100879.72;4152057;28;20058;-72
2023/08/19 02:35:51;;;;;;;22.55;4.68;;;18.30;99.90;;;17.68;100.00;100882.16;4134921;28;20022;-73
2023/08/19 02:37:52;;;;;;;;;;;18.20;99.90;;;17.61;100.00;100882.13;4135933;28;20038;-72
2023/08/19 02:39:53;;;;;;;16.60;3.03;;;18.20;99.90;;;17.55;100.00;100880.25;4151669;28;19910;-72
2023/08/19 02:41:54;;;;;;;14.60;4.35;;;18.10;99.90;;;17.47;100.00;100867.03;4152174;28;20021;-72
2023/08/19 02:43:55;;;;;;;13.82;3.28;;;18.10;99.90;;;17.46;100.00;100870.75;4152982;28;20037;-72
2023/08/19 02:45:57;;;;;;;15.68;3.03;;;18.00;99.90;;;17.39;100.00;100871.72;4150342;28;20069;-72
2023/08/19 02:47:58;;;;;;;17.13;3.80;;;17.90;99.90;;;17.41;100.00;100880.34;4149010;28;20486;-72
2023/08/19 02:49:59;;;;;;;17.25;3.05;;;17.90;99.90;;;17.27;100.00;100860.78;4153169;28;20060;-72
2023/08/19 02:52:00;;;;;;;16.52;3.70;;;17.90;99.90;;;17.30;100.00;100863.06;4151858;28;20513;-72
2023/08/19 02:54:01;;;;;;;10.48;2.70;;;17.80;99.90;;;17.33;100.00;100878.66;4167893;28;20048;-72
2023/08/19 02:56:06;;;;;;;10.95;2.70;;;17.80;99.90;;;17.27;100.00;100866.09;4152862;28;20026;-73
2023/08/19 02:58:07;;;;;;;12.10;3.10;;;17.80;99.90;;;17.28;100.00;100873.09;4153045;28;20092;-72
2023/08/19 03:00:09;;;;;;;12.30;2.90;;;17.80;99.90;;;17.29;100.00;100880.09;4151563;28;20026;-72
2023/08/19 03:02:10;;;;;;;19.45;3.53;;;17.80;99.90;;;17.22;100.00;100873.88;4151803;28;20030;-72
2023/08/19 03:04:11;;;;;;;23.45;5.65;;;17.70;99.90;;;17.25;100.00;100886.81;4151674;28;20022;-72
2023/08/19 03:06:12;;;;;;;20.08;4.72;;;17.70;99.90;;;17.28;100.00;100889.09;4152676;28;20030;-72
2023/08/19 03:08:12;;;;;;;18.52;4.38;;;17.80;99.90;;;17.37;100.00;100889.75;4151233;28;20017;-72
2023/08/19 03:10:13;;;;;;;19.80;4.10;;;17.80;99.90;;;17.42;100.00;100890.81;4145707;28;20030;-72
2023/08/19 03:12:14;;;;;;;19.77;3.90;;;17.90;99.90;;;17.45;100.00;100894.94;4152582;28;20030;-72
2023/08/19 03:14:15;;;;;;;20.33;5.15;;;17.90;99.90;;;17.43;100.00;100889.81;4152573;28;20437;-72
2023/08/19 03:16:17;;;;;;;13.85;4.05;;;18.00;99.90;;;17.53;100.00;100902.78;4151442;28;20029;-72
2023/08/19 03:18:18;;;;;;;21.00;3.40;;;18.10;99.90;;;17.56;100.00;100903.22;4152573;28;20029;-72
2023/08/19 03:20:19;;;;;;;17.77;3.97;;;18.10;99.90;;;17.55;100.00;100903.44;4152506;28;20022;-72
2023/08/19 03:22:19;;;;;;;20.80;3.95;;;18.10;99.90;;;17.50;100.00;100903.19;4151503;28;20042;-72
2023/08/19 03:24:20;;;;;;;16.58;4.35;;;18.00;99.90;;;17.37;100.00;100901.25;4152654;28;20029;-72
2023/08/19 03:26:21;;;;;;;20.52;4.68;;;18.00;99.90;;;17.29;100.00;100904.09;4151537;28;20022;-72
2023/08/19 03:28:22;;;;;;;23.20;4.30;;;17.80;99.90;;;17.25;100.00;100916.16;4152507;28;20064;-72
2023/08/19 03:30:23;;;;;;;13.65;3.70;;;17.80;99.90;;;17.13;100.00;100901.72;4151194;28;20473;-72
2023/08/19 03:32:24;;;;;;;17.40;4.25;;;17.70;99.90;;;17.07;100.00;100907.81;4135313;28;20072;-72
2023/08/19 03:34:25;;;;;;;17.85;3.88;;;17.70;99.90;;;17.08;100.00;100926.25;4152544;28;20116;-72
2023/08/19 03:36:26;;;;;;;16.73;4.35;;;17.60;99.90;;;17.05;100.00;100925.84;4149938;28;20050;-72
2023/08/19 03:38:27;;;;;;;14.43;5.65;;;17.60;99.90;;;17.14;100.00;100940.69;4151114;28;20021;-72
2023/08/19 03:40:28;;;;;;;21.60;3.92;;;17.60;99.90;;;17.16;100.00;100933.31;4152572;28;20040;-72
2023/08/19 03:42:29;;;;;;;22.35;4.15;;;17.70;99.90;;;17.23;100.00;100946.69;4151176;28;20021;-72
2023/08/19 03:44:30;;;;;;;21.00;3.80;;;17.70;99.90;;;17.26;100.00;100947.13;4152238;28;20108;-72
2023/08/19 03:46:30;;;;;;;20.02;4.60;;;17.70;99.90;;;17.29;100.00;100957.41;4151800;28;20046;-72
2023/08/19 03:48:31;;;;;;;20.90;5.13;;;17.80;99.90;;;17.33;100.00;100950.66;4150989;28;20030;-72
2023/08/19 03:50:32;;;;;;;23.20;4.90;;;17.80;99.90;;;17.40;100.00;100954.19;4152150;28;20037;-72
2023/08/19 03:52:33;;;;;;;23.98;4.75;;;17.90;99.90;;;17.42;100.00;100954.00;4152247;28;20446;-72
2023/08/19 03:54:34;;;;;;;17.85;4.07;;;17.90;99.90;;;17.43;100.00;100956.47;4151069;28;20489;-72
2023/08/19 03:56:35;;;;;;;24.38;4.93;;;17.90;99.90;;;17.44;100.00;100951.97;4151166;28;20120;-72
2023/08/19 03:58:36;;;;;;;23.77;5.03;;;18.00;99.90;;;17.41;100.00;100953.16;4134763;28;20050;-72
2023/08/19 04:00:37;;;;;;;14.10;4.07;;;17.90;99.90;;;17.35;100.00;100953.16;4150650;28;20041;-72
2023/08/19 04:02:38;;;;;;;20.17;5.13;;;17.90;99.90;;;17.06;100.00;100927.47;4150776;28;20033;-72
2023/08/19 04:05:00;;;;;;;15.50;3.47;;;17.80;99.90;;;17.14;100.00;100952.16;4150944;28;20397;-72
2023/08/19 04:07:00;;;;;;;22.27;4.30;;;17.70;99.90;;;17.03;100.00;100949.19;4150817;28;20026;-72
2023/08/19 04:09:01;;;;;;;17.65;3.60;;;17.60;99.90;;;16.99;100.00;100953.28;4150963;28;20030;-72
2023/08/19 04:11:07;;;;;;;20.67;4.72;;;17.60;99.90;;;16.96;100.00;100967.81;4150686;28;20026;-73
2023/08/19 04:13:08;;;;;;;18.05;3.15;;;17.50;99.90;;;16.89;100.00;100963.44;4148133;28;20031;-72
2023/08/19 04:15:10;;;;;;;15.18;3.60;;;17.40;99.90;;;16.89;100.00;100968.75;4144668;28;20034;-72
2023/08/19 04:17:11;;;;;;;29.20;4.70;;;17.40;99.90;;;16.86;100.00;100979.81;4151719;28;20093;-72
2023/08/19 04:19:11;;;;;;;22.52;4.70;;;17.40;99.90;;;16.78;100.00;100978.09;4150899;28;20025;-72
2023/08/19 04:21:12;;;;;;;20.17;4.53;;;17.30;99.90;;;16.76;100.00;100973.94;4150873;28;20038;-72
2023/08/19 04:23:14;;;;;;;20.05;3.90;;;17.30;99.90;;;16.65;100.00;100963.81;4150978;28;20505;-72
2023/08/19 04:25:14;;;;;;;24.88;4.25;;;17.30;99.90;;;16.75;100.00;100982.97;4150621;28;20045;-72
2023/08/19 04:27:15;;;;;;;21.63;4.45;;;17.30;99.90;;;16.75;100.00;100993.63;4152009;28;20036;-72
2023/08/19 04:29:16;;;;;;;22.23;5.53;;;17.30;99.90;;;16.68;100.00;100990.91;4150856;28;20034;-72
2023/08/19 04:31:18;;;;;;;18.10;4.40;;;17.20;99.90;;;16.68;100.00;100992.72;4134654;28;20022;-72
2023/08/19 04:33:19;;;;;;;20.45;4.60;;;17.20;99.90;;;16.74;100.00;100997.31;4151553;28;20068;-72
2023/08/19 04:35:30;;;;;;;20.33;3.92;;;17.20;99.90;;;16.82;100.00;100999.84;4151138;28;20029;-72
2023/08/19 04:37:31;;;;;;;27.52;6.03;;;17.30;99.90;;;16.83;100.00;100990.84;4151263;28;20092;-72
2023/08/19 04:39:32;;;;;;;20.65;3.85;;;17.30;99.90;;;16.81;100.00;101003.53;4150539;28;20026;-73
2023/08/19 04:41:33;;;;;;;22.58;4.97;;;17.30;99.90;;;16.71;100.00;100992.34;4151742;28;20083;-72
2023/08/19 04:43:34;;;;;;;22.42;4.25;;;17.30;99.90;;;16.65;100.00;100987.78;4134240;28;20030;-72
2023/08/19 04:45:35;;;;;;;19.55;3.70;;;17.20;99.90;;;16.68;100.00;101001.56;4151888;28;20030;-73
2023/08/19 04:47:36;;;;;;;17.33;4.03;;;17.20;99.90;;;16.52;100.00;100991.09;4151720;28;20033;-73
2023/08/19 04:49:37;;;;;;;19.75;3.78;;;17.20;99.90;;;16.61;100.00;101010.50;4151772;28;20064;-72
2023/08/19 04:51:38;;;;;;;19.25;4.43;;;17.20;99.90;;;16.61;100.00;101008.63;4151663;28;20100;-72
2023/08/19 04:53:39;;;;;;;26.08;5.05;;;17.10;99.90;;;16.57;100.00;101012.72;4151717;28;20033;-73
2023/08/19 04:55:40;;;;;;;24.50;3.88;;;17.10;99.90;;;16.52;100.00;101004.41;4151791;28;20026;-72
2023/08/19 04:57:42;;;;;;;21.17;4.07;;;17.10;99.90;;;16.49;100.00;101007.44;4150813;28;20022;-72
2023/08/19 04:59:43;;;;;;;19.67;3.95;;;17.10;99.90;;;16.51;100.00;101018.75;4170067;28;20429;-72
2023/08/19 05:01:44;;;;;;;21.67;4.07;;;17.00;99.90;;;16.46;100.00;101021.97;4154601;28;20029;-72
2023/08/19 05:03:45;;;;;;;20.95;4.53;;;17.00;99.90;;;16.37;100.00;101008.94;4154559;28;20041;-72
2023/08/19 05:05:46;;;;;;;27.45;4.07;;;17.00;99.90;;;16.42;100.00;101026.03;4154737;28;20033;-72
2023/08/19 05:07:46;;;;;;;17.95;3.80;;;16.90;99.90;;;16.43;100.00;101027.66;4154444;28;20507;-72
2023/08/19 05:09:47;;;;;;;19.55;4.40;;;17.00;99.90;;;16.39;100.00;101021.09;4154613;28;20033;-72
2023/08/19 05:11:48;;;;;;;21.02;4.28;;;16.90;99.90;;;16.40;100.00;101033.38;4136905;28;20037;-72
2023/08/19 05:13:49;;;;;;;19.30;4.18;;;16.90;99.90;;;16.36;100.00;101029.44;4153286;28;20092;-72
2023/08/19 05:15:50;;;;;;;17.33;3.65;;;16.90;99.90;;;16.36;100.00;101031.28;4153475;28;20034;-72
2023/08/19 05:17:51;;;;;;;14.65;2.45;;;16.90;99.90;;;16.33;100.00;101043.13;4154206;28;20030;-72
2023/08/19 05:19:54;;;;;;;13.23;3.90;;;16.80;99.90;;;16.29;100.00;101041.84;4151909;28;20068;-72
2023/08/19 05:21:55;;;;;;;21.10;3.72;;;16.80;99.90;;;16.30;100.00;101048.81;4148990;28;20486;-72
2023/08/19 05:23:56;;;;;;;15.88;3.92;;;16.80;99.90;;;16.29;100.00;101052.50;4154049;28;20041;-72
2023/08/19 05:25:57;;;;;;;22.00;4.05;;;16.80;99.90;;;16.28;100.00;101048.16;4154335;28;20025;-72
2023/08/19 05:27:58;;;;;;;15.23;4.03;;;16.80;99.90;;;16.17;100.00;101038.00;4154393;28;20022;-72
2023/08/19 05:29:59;;;;;;;21.17;4.95;;;16.80;99.90;;;16.25;100.00;101045.03;4153051;28;20409;-72
2023/08/19 05:32:00;;;;;;;29.80;5.90;;;16.80;99.90;;;16.24;100.00;101046.91;4152640;28;20501;-72
2023/08/19 05:34:01;;;;;;;28.23;5.80;;;16.80;99.90;;;16.28;100.00;101050.81;4154171;28;20113;-72
2023/08/19 05:36:02;;;;;;;19.45;3.97;;;16.80;99.90;;;16.30;100.00;101051.47;4152076;28;20049;-72
2023/08/19 05:38:03;;;;;;;14.95;3.78;;;16.80;99.90;;;16.30;100.00;101054.16;4154068;28;20037;-72
2023/08/19 05:40:05;;;;;;;19.40;3.60;;;16.80;99.90;;;16.30;100.00;101061.31;4152680;28;20076;-72
2023/08/19 05:42:06;;;;;;;13.70;3.13;;;16.80;99.90;;;16.30;100.00;101055.97;4154086;28;20033;-72
2023/08/19 05:44:07;;;;;;;20.67;4.10;;;16.80;99.90;;;16.28;100.00;101055.31;4152769;28;20505;-72
2023/08/19 05:46:08;;;;;;;17.50;3.88;;;16.80;99.90;;;16.31;100.00;101058.44;4153950;28;20084;-72
2023/08/19 05:48:09;;;;;;;25.60;4.40;;;16.80;99.90;;;16.34;100.00;101066.06;4153717;28;20038;-72
2023/08/19 05:50:10;;;;;;;19.70;3.85;;;16.80;99.90;;;16.34;100.00;101063.41;4153978;28;20025;-72
2023/08/19 05:52:10;;;;;;;26.98;4.10;;;16.80;99.90;;;16.37;100.00;101073.69;4153932;28;20033;-72
2023/08/19 05:54:11;;;;;;;28.15;5.00;;;16.90;99.90;;;16.40;100.00;101075.13;4153848;28;20029;-72
2023/08/19 05:56:12;;;;;;;18.30;3.40;;;16.90;99.90;;;16.38;100.00;101072.69;4152512;28;20026;-72
2023/08/19 05:58:14;;;;;;;20.25;4.68;;;16.90;99.90;;;16.35;100.00;101064.22;4134011;28;20022;-72
2023/08/19 06:00:16;;;;;;;23.63;4.53;;;16.90;99.90;;;16.50;100.00;101086.34;4144412;28;20026;-72
2023/08/19 06:02:16;;;;;;;18.35;4.00;;;17.00;99.90;;;16.53;100.00;101092.13;4148528;28;20057;-72
2023/08/19 06:04:19;;;;;;;14.23;3.17;;;17.00;99.90;;;16.48;100.00;101077.72;4152187;28;20064;-72
2023/08/19 06:06:20;;;;;;;19.67;4.90;;;17.00;99.90;;;16.62;100.00;101094.69;4136292;28;20559;-72
2023/08/19 06:08:20;;;;;;;18.20;4.25;;;17.10;99.90;;;16.58;100.00;101092.41;4144546;28;20026;-72
2023/08/19 06:10:22;;;;;;;25.02;5.47;;;17.10;99.90;;;16.69;100.00;101099.13;4119725;28;20098;-72
2023/08/19 06:12:22;;;;;;;20.83;3.55;;;17.20;99.90;;;16.53;100.00;101081.47;4151391;28;20032;-72
2023/08/19 06:14:23;;;;;;;14.82;3.05;;;17.20;99.90;;;16.78;100.00;101105.16;4152393;28;20030;-72
2023/08/19 06:16:24;;;;;;;19.73;4.07;;;17.20;99.90;;;17.00;100.00;101106.81;4152341;28;20026;-72
2023/08/19 06:18:25;;;;;;;19.95;3.95;;;17.40;99.90;;;17.29;100.00;101117.41;4153428;28;20037;-72
2023/08/19 06:20:26;;;;;;;23.10;4.60;;;17.60;99.90;;;17.48;100.00;101113.25;4152067;28;20030;-72
2023/08/19 06:22:27;;;;;;;19.77;3.17;;;17.80;99.90;;;17.58;100.00;101114.63;4153525;28;20033;-72
2023/08/19 06:24:28;;;;;;;18.80;3.20;;;17.90;99.90;;;17.64;100.00;101118.34;4152238;28;20022;-72
2023/08/19 06:26:29;;;;;;;19.40;3.90;;;18.00;99.90;;;17.62;100.00;101115.06;4168039;28;20025;-72
2023/08/19 06:28:30;;;;;;;22.48;4.07;;;18.00;99.90;;;17.58;100.00;101114.63;4153169;28;20520;-72
2023/08/19 06:30:31;;;;;;;21.67;5.07;;;18.10;99.90;;;17.63;100.00;101125.53;4152006;28;20022;-72
2023/08/19 06:32:33;;;;;;;25.20;3.40;;;18.10;99.90;;;17.68;100.00;101119.63;4153297;28;20026;-72
2023/08/19 06:34:34;;;;;;;15.80;3.30;;;18.20;99.90;;;17.81;100.00;101124.22;4152125;28;20061;-72
2023/08/19 06:36:40;;;;;;;12.73;3.65;;;18.30;99.90;;;18.03;100.00;101129.34;4133564;28;20112;-72
2023/08/19 06:38:49;;;;;;;21.10;3.47;;;18.40;99.90;;;18.43;100.00;101141.06;4152119;28;20038;-72
2023/08/19 06:41:07;;;;;;;24.25;4.25;;;18.70;99.90;;;18.68;100.00;101150.28;4144227;28;20617;-73
2023/08/19 06:43:09;;;;;;;17.75;4.57;;;18.90;99.90;;;18.79;100.00;101155.03;4149193;28;20033;-72
2023/08/19 06:45:11;;;;;;;17.48;4.22;;;19.10;99.90;;;19.10;100.00;101153.72;4139777;28;20572;-72
2023/08/19 06:47:13;;;;;;;17.52;3.58;;;19.40;99.90;;;19.33;100.00;101154.19;4151810;28;20034;-72
2023/08/19 06:49:15;;;;;;;18.25;3.65;;;19.60;99.90;;;19.65;100.00;101161.44;4168021;28;20032;-72
2023/08/19 06:51:16;;;;;;;20.13;4.90;;;19.90;99.90;;;19.92;100.00;101164.97;4142151;28;20060;-72
2023/08/19 06:53:18;;;;;;;21.08;4.05;;;20.10;99.90;;;20.09;100.00;101163.53;4153013;28;20057;-72
2023/08/19 06:55:19;;;;;;;21.00;3.58;;;20.40;99.90;;;20.13;100.00;101150.53;4152973;28;20108;-72
2023/08/19 06:57:38;;;;;;;15.52;3.55;;;20.50;99.90;;;20.30;100.00;101162.47;4152855;28;20111;-72
2023/08/19 06:59:41;;;;;;;17.17;3.85;;;20.60;99.90;;;20.42;100.00;101160.81;4152265;28;20037;-73
2023/08/19 07:01:51;;;;;;;17.40;3.35;;;20.70;99.90;;;20.51;100.00;101169.44;4152553;28;20048;-72
2023/08/19 07:03:53;;;;;;;13.27;3.80;;;20.80;99.90;;;20.54;100.00;101152.94;4152776;28;20409;-75
2023/08/19 07:05:56;;;;;;;17.75;3.60;;;20.90;99.90;;;20.69;100.00;101173.09;4148561;28;20101;-73
2023/08/19 07:07:59;;;;;;;9.98;2.67;;;21.00;99.90;;;20.89;100.00;101176.53;4151876;28;20053;-73
2023/08/19 07:10:00;;;;;;;14.75;3.08;;;21.10;99.90;;;20.96;100.00;101180.00;4134566;28;20053;-73
2023/08/19 07:12:02;;;;;;;13.13;3.45;;;21.20;99.90;;;21.01;100.00;101181.22;4145711;28;20029;-73
2023/08/19 07:14:03;;;;;;;16.77;4.80;;;21.30;99.90;;;21.05;100.00;101185.13;4134942;28;20036;-72
2023/08/19 07:16:05;;;;;;;21.20;4.22;;;21.40;99.90;;;20.90;100.00;101180.03;4133968;28;20030;-73
2023/08/19 07:18:09;;;;;;;15.00;3.72;;;21.40;99.90;;;20.93;100.00;101185.81;4147439;28;20029;-73
2023/08/19 07:20:16;;;;;;;14.43;3.17;;;21.30;99.90;;;20.95;100.00;101189.09;4144966;28;20093;-73
2023/08/19 07:22:18;;;;;;;14.43;2.90;;;21.30;99.90;;;21.02;100.00;101194.44;4148177;28;20053;-73
2023/08/19 07:24:20;;;;;;;19.77;3.33;;;21.40;99.90;;;21.07;100.00;101196.47;4134822;28;20022;-74
2023/08/19 07:26:26;;;;;;;13.45;2.95;;;21.50;99.90;;;21.23;100.00;101204.06;4150778;28;20041;-74
2023/08/19 07:28:30;;;;;;;16.02;3.28;;;21.60;99.90;;;21.36;100.00;101199.44;4152003;28;20026;-73
2023/08/19 07:30:31;;;;;;;;;;;21.70;99.90;;;21.53;100.00;101211.28;4139804;28;20044;-73
2023/08/19 07:32:33;;;;;;;16.50;3.80;;;21.90;99.90;;;21.58;100.00;101207.97;4151096;28;19909;-73
2023/08/19 07:34:34;;;;;;;13.52;3.80;;;22.00;99.90;;;21.62;100.00;101219.09;4151300;28;20026;-74
2023/08/19 07:36:35;;;;;;;22.88;2.95;;;22.00;99.90;;;21.70;100.00;101214.28;4151592;28;20104;-73
2023/08/19 07:38:37;;;;;;;11.05;2.40;;;22.00;99.90;;;21.74;100.00;101210.16;4135070;28;20050;-73
2023/08/19 07:40:38;;;;;;;16.17;2.90;;;22.20;99.90;;;21.80;100.00;101222.66;4152378;28;20042;-73
2023/08/19 07:42:39;;;;;;;11.88;3.47;;;22.20;99.90;;;21.67;100.00;101220.09;4151299;28;20033;-73
2023/08/19 07:44:39;;;;;;;15.65;2.95;;;22.10;99.90;;;21.67;100.00;101221.97;4152366;28;20515;-73
2023/08/19 07:46:40;;;;;;;17.55;3.35;;;22.10;99.90;;;21.52;100.00;101222.25;4150756;28;20456;-74
2023/08/19 07:48:44;;;;;;;10.85;2.45;;;22.00;99.90;;;21.49;100.00;101231.56;4147886;28;20053;-74
2023/08/19 07:50:45;;;;;;;13.35;2.38;;;22.00;99.90;;;21.40;100.00;101216.75;4138717;28;20018;-73
2023/08/19 07:52:46;;;;;;;8.73;2.15;;;22.00;99.90;;;21.75;100.00;101227.06;4147242;28;20540;-73
2023/08/19 07:54:47;;;;;;;12.13;2.80;;;22.10;99.90;;;21.94;100.00;101224.28;4151088;28;20030;-74
2023/08/19 07:56:51;;;;;;;16.00;3.28;;;22.30;99.90;;;22.01;100.00;101235.78;4151223;28;20053;-74
2023/08/19 07:58:52;;;;;;;16.35;2.80;;;22.40;99.90;;;22.05;100.00;101244.22;4151329;28;20022;-73
2023/08/19 08:00:52;;;;;;;11.80;2.13;;;22.50;99.90;;;21.84;100.00;101231.94;4143733;28;20081;-74
2023/08/19 08:02:53;;;;;;;11.20;2.47;;;22.40;99.90;;;21.54;100.00;101249.69;4151090;28;20034;-74
2023/08/19 08:04:55;;;;;;;11.40;2.58;;;22.20;99.90;;;21.20;100.00;101234.00;4152146;28;20030;-74
2023/08/19 08:06:55;;;;;;;13.25;2.47;;;22.10;99.90;;;21.27;100.00;101257.06;4151343;28;20026;-74
2023/08/19 08:08:56;;;;;;;12.25;2.78;;;22.00;99.90;;;21.35;100.00;101264.06;4152245;28;20033;-73
2023/08/19 08:10:57;;;;;;;10.13;2.33;;;22.00;99.90;;;21.45;100.00;101259.88;4151960;28;20050;-73
2023/08/19 08:12:58;;;;;;;13.35;2.15;;;22.00;99.90;;;21.29;100.00;101271.13;4152165;28;20030;-73
2023/08/19 08:14:59;;;;;;;6.43;2.22;;;21.90;99.90;;;21.15;100.00;101240.00;4152132;28;20505;-74
2023/08/19 08:17:00;;;;;;;8.65;1.95;;;21.90;99.90;;;21.44;100.00;101265.47;4152046;28;20430;-74